Terminal Aerodrome Forecast
Issued by NWS

Home | Current Version | Previous Version | Text Only | Print | Product List | Glossary On
Versions: 1 2 3 4 5 6 7 8 9 10 11 12 13 14 15 16 17 18 19 20 21 22 23 24 25 26 27 28 29 30 31 32 33 34 35 36 37 38 39 40 41 42 43 44 45 46 47
000
FTUS42 KGSP 292340
TAFHKY
TAF
KHKY 292340Z 3000/3024 VRB03KT P6SM BKN060
     FM300600 10004KT P6SM BKN025
     FM300800 11005KT P6SM BKN015
     FM301200 10005KT 5SM BR OVC008
     FM301400 09006KT P6SM OVC008 PROB30 3016/3022 2SM -RA BR OVC003
     FM302200 08005KT 2SM -RA BR OVC008=

USA.gov is the U.S. government's official web portal to all federal, state and local government web resources and services.